Time;durP1;ratioP1;P1;durP2;ratioP2;P2;SDS_P1;SDS_P2;PMS_P1;PMS_P2;Temp;Humidity;BMP_temperature;BMP_pressure;BME280_temperature;BME280_humidity;BME280_pressure;Samples;Min_cycle;Max_cycle;Signal;HPM_P1;HPM_P2
2023/04/04 00:02:01;;;;;;;2.17;1.90;;;7.10;54.70;;;;;;5032188;28;21197;-82
2023/04/04 00:04:36;;;;;;;3.03;1.60;;;7.00;54.20;;;;;;5033997;28;20484;-82
2023/04/04 00:07:28;;;;;;;2.00;1.57;;;7.00;54.60;;;;;;5034113;28;20449;-82
2023/04/04 00:10:13;;;;;;;2.17;1.60;;;7.00;54.50;;;;;;5024197;28;20460;-82
2023/04/04 00:12:48;;;;;;;4.43;1.67;;;6.80;54.70;;;;;;5026332;28;20555;-83
2023/04/04 00:15:17;;;;;;;3.27;2.13;;;7.00;55.20;;;;;;5034170;28;20479;-83
2023/04/04 00:17:57;;;;;;;2.93;1.83;;;6.90;55.40;;;;;;5037922;28;20577;-80
2023/04/04 00:20:38;;;;;;;3.20;2.47;;;6.90;55.30;;;;;;5035079;28;20454;-82
2023/04/04 00:23:31;;;;;;;4.13;1.90;;;6.90;55.00;;;;;;5020292;28;20548;-81
2023/04/04 00:26:20;;;;;;;1.70;1.50;;;6.80;55.10;;;;;;5014111;28;21044;-82
2023/04/04 00:29:02;;;;;;;1.63;1.53;;;7.00;54.70;;;;;;5028147;28;21133;-82
2023/04/04 00:31:40;;;;;;;2.97;1.60;;;7.00;55.40;;;;;;5024268;28;20463;-83
2023/04/04 00:34:19;;;;;;;4.67;1.53;;;7.00;54.60;;;;;;5035931;28;20477;-82
2023/04/04 00:37:13;;;;;;;2.30;1.97;;;6.90;54.80;;;;;;5027165;28;20466;-82
2023/04/04 00:40:33;;;;;;;1.87;1.43;;;6.70;55.10;;;;;;5026798;28;21000;-83
2023/04/04 00:43:35;;;;;;;3.10;1.90;;;6.90;55.80;;;;;;5026521;28;20996;-82
2023/04/04 00:46:29;;;;;;;2.77;1.43;;;6.70;55.60;;;;;;5025676;28;20495;-82
2023/04/04 00:49:05;;;;;;;3.70;1.73;;;6.70;56.00;;;;;;5020535;28;20492;-82
2023/04/04 00:51:51;;;;;;;3.97;1.87;;;6.80;56.20;;;;;;5022758;28;20961;-84
2023/04/04 00:54:33;;;;;;;1.70;1.60;;;6.60;56.40;;;;;;5025487;28;20486;-83
2023/04/04 00:57:10;;;;;;;3.47;2.67;;;6.60;56.40;;;;;;5025728;28;20563;-83
2023/04/04 01:00:08;;;;;;;3.60;2.30;;;6.70;56.90;;;;;;5031093;28;20461;-83
2023/04/04 01:03:06;;;;;;;1.97;1.30;;;6.60;57.30;;;;;;5026763;28;20585;-84
2023/04/04 01:06:00;;;;;;;2.63;1.80;;;6.50;57.10;;;;;;5036979;28;20460;-82
2023/04/04 01:11:27;;;;;;;3.00;1.90;;;6.50;57.30;;;;;;5030888;28;20414;-82
2023/04/04 01:14:05;;;;;;;4.30;1.80;;;6.40;57.60;;;;;;5024420;28;21035;-83
2023/04/04 01:16:45;;;;;;;2.10;1.50;;;6.50;58.30;;;;;;5032603;28;20461;-84
2023/04/04 01:19:36;;;;;;;3.37;1.77;;;6.50;58.00;;;;;;5034374;28;20449;-83
2023/04/04 01:22:19;;;;;;;2.60;1.50;;;6.60;58.30;;;;;;5033017;28;20461;-83
2023/04/04 01:25:14;;;;;;;3.90;1.83;;;6.50;58.30;;;;;;5024634;28;20490;-84
2023/04/04 01:28:01;;;;;;;2.60;1.90;;;6.40;58.00;;;;;;5022426;28;20953;-80
2023/04/04 01:30:47;;;;;;;1.80;1.70;;;6.50;58.00;;;;;;5030739;28;21015;-84
2023/04/04 01:33:27;;;;;;;1.90;1.80;;;6.40;57.40;;;;;;5025742;28;20477;-82
2023/04/04 01:36:40;;;;;;;5.50;2.20;;;6.30;57.80;;;;;;5031488;28;20516;-84
2023/04/04 01:39:52;;;;;;;2.80;2.07;;;6.30;57.90;;;;;;4959000;28;20465;-81
2023/04/04 01:42:33;;;;;;;1.80;1.70;;;6.10;57.70;;;;;;5005558;28;20445;-82
2023/04/04 01:45:08;;;;;;;3.27;2.00;;;6.00;57.90;;;;;;5041563;28;20527;-82
2023/04/04 01:47:52;;;;;;;2.07;1.57;;;6.00;58.20;;;;;;5037122;28;20834;-80
2023/04/04 01:50:29;;;;;;;4.97;1.87;;;5.90;57.60;;;;;;5026504;28;20460;-82
2023/04/04 01:53:28;;;;;;;1.57;1.47;;;5.90;58.30;;;;;;5031293;28;20481;-84
2023/04/04 01:56:02;;;;;;;2.17;1.73;;;5.90;58.80;;;;;;5027357;28;20460;-84
2023/04/04 01:58:32;;;;;;;4.13;2.07;;;5.90;59.20;;;;;;5026412;28;20460;-83
2023/04/04 02:01:29;;;;;;;2.90;1.90;;;5.90;59.10;;;;;;5020875;28;20468;-83
2023/04/04 02:03:59;;;;;;;2.80;1.67;;;5.70;59.20;;;;;;5031259;28;20864;-83
2023/04/04 02:06:57;;;;;;;2.00;1.80;;;5.80;59.30;;;;;;5024153;28;20899;-83
2023/04/04 02:09:42;;;;;;;2.43;1.90;;;6.00;59.40;;;;;;5023098;28;20979;-84
2023/04/04 02:12:23;;;;;;;2.07;1.63;;;5.80;58.80;;;;;;5031475;28;20544;-83
2023/04/04 02:15:00;;;;;;;3.60;2.30;;;5.90;58.90;;;;;;5031408;28;20543;-83
2023/04/04 02:17:46;;;;;;;2.80;1.90;;;5.80;59.30;;;;;;5027676;28;20473;-82
2023/04/04 02:20:42;;;;;;;3.57;1.67;;;5.70;59.10;;;;;;5027512;28;20465;-82
2023/04/04 02:23:31;;;;;;;2.30;2.10;;;5.60;59.50;;;;;;5026281;28;20489;-83
2023/04/04 02:26:04;;;;;;;2.43;1.70;;;5.70;60.10;;;;;;5029108;28;20450;-84
2023/04/04 02:28:39;;;;;;;2.30;1.80;;;5.80;60.70;;;;;;5020710;28;20527;-84
2023/04/04 02:31:32;;;;;;;2.00;1.37;;;5.60;60.40;;;;;;5030579;28;20437;-83
2023/04/04 02:34:41;;;;;;;2.70;1.93;;;5.70;60.70;;;;;;5036416;28;20499;-83
2023/04/04 02:37:53;;;;;;;3.40;1.90;;;5.70;59.80;;;;;;5035245;28;20511;-82
2023/04/04 02:40:47;;;;;;;1.70;1.60;;;5.80;59.50;;;;;;5021772;28;20475;-83
2023/04/04 02:43:17;;;;;;;1.60;1.37;;;5.70;59.40;;;;;;5040169;28;20504;-83
2023/04/04 02:46:00;;;;;;;2.93;1.80;;;5.70;59.40;;;;;;5047574;28;20486;-82
2023/04/04 02:48:51;;;;;;;1.90;1.57;;;5.70;60.00;;;;;;5044694;28;20532;-83
2023/04/04 02:51:20;;;;;;;2.00;1.63;;;5.80;60.10;;;;;;5044892;28;20473;-83
2023/04/04 02:53:59;;;;;;;1.53;1.43;;;5.80;59.90;;;;;;5041518;28;20493;-82
2023/04/04 03:00:01;;;;;;;1.97;1.70;;;5.70;60.20;;;;;;5023473;28;20511;-82
2023/04/04 03:02:55;;;;;;;2.43;1.40;;;5.70;60.00;;;;;;5032178;28;20477;-82
2023/04/04 03:05:37;;;;;;;4.17;2.87;;;5.40;59.70;;;;;;5030580;28;20476;-83
2023/04/04 03:08:17;;;;;;;2.70;1.90;;;5.30;60.50;;;;;;5031667;28;20978;-83
2023/04/04 03:10:51;;;;;;;3.00;2.80;;;5.40;61.10;;;;;;5031480;28;20464;-83
2023/04/04 03:13:28;;;;;;;2.40;2.10;;;5.30;61.30;;;;;;5036092;28;20508;-82
2023/04/04 03:16:18;;;;;;;2.40;1.77;;;5.20;61.90;;;;;;5037534;28;20433;-84
2023/04/04 03:19:11;;;;;;;;;;;;;;;;;;;;;
2023/04/04 03:21:44;;;;;;;3.17;1.90;;;5.20;63.80;;;;;;5029890;28;20457;-83
2023/04/04 03:24:31;;;;;;;5.00;2.10;;;5.30;63.80;;;;;;5031876;28;20480;-82
2023/04/04 03:27:45;;;;;;;4.73;2.13;;;5.50;62.70;;;;;;5031314;28;20461;-82
2023/04/04 03:30:39;;;;;;;4.97;2.00;;;5.40;62.90;;;;;;5022960;28;20562;-82
2023/04/04 03:33:26;;;;;;;2.17;1.67;;;5.40;63.60;;;;;;5030860;28;20489;-79
2023/04/04 03:36:29;;;;;;;2.17;1.90;;;5.30;62.40;;;;;;5028552;28;20460;-82
2023/04/04 03:39:14;;;;;;;2.93;1.83;;;5.30;62.40;;;;;;5037391;28;20524;-82
2023/04/04 03:41:50;;;;;;;1.87;1.77;;;5.20;62.40;;;;;;5038648;28;20472;-84
2023/04/04 03:44:55;;;;;;;3.07;2.40;;;5.20;62.60;;;;;;5026301;28;20515;-81
2023/04/04 03:47:41;;;;;;;2.73;1.90;;;5.20;63.20;;;;;;5027341;28;20787;-83
2023/04/04 03:50:28;;;;;;;3.17;2.30;;;5.20;62.90;;;;;;5037981;28;20461;-83
2023/04/04 03:53:32;;;;;;;5.30;2.33;;;5.10;63.30;;;;;;5030707;28;20470;-83
2023/04/04 03:56:25;;;;;;;3.77;2.10;;;5.00;63.10;;;;;;5033585;28;20472;-84
2023/04/04 03:59:09;;;;;;;2.93;2.03;;;5.00;63.50;;;;;;5028143;28;20461;-83
2023/04/04 04:01:47;;;;;;;2.67;2.07;;;5.00;64.00;;;;;;5024728;28;21114;-84
2023/04/04 04:04:23;;;;;;;3.33;2.00;;;4.90;63.80;;;;;;5019756;28;20895;-83
2023/04/04 04:06:53;;;;;;;3.00;1.70;;;4.90;64.00;;;;;;5027245;28;20456;-83
2023/04/04 04:09:23;;;;;;;2.17;1.60;;;5.00;64.40;;;;;;5034282;28;20455;-83
2023/04/04 04:11:55;;;;;;;3.33;1.63;;;5.00;64.60;;;;;;5023517;28;21042;-83
2023/04/04 04:14:32;;;;;;;3.30;1.63;;;5.00;65.30;;;;;;5026489;28;20663;-82
2023/04/04 04:17:27;;;;;;;3.00;1.57;;;4.90;64.70;;;;;;5028044;28;20779;-82
2023/04/04 04:20:10;;;;;;;3.20;1.70;;;4.90;64.70;;;;;;5032164;28;20467;-84
2023/04/04 04:22:51;;;;;;;1.70;1.60;;;5.00;64.10;;;;;;5032643;28;20469;-81
2023/04/04 04:25:33;;;;;;;2.07;1.83;;;5.00;63.90;;;;;;5037423;28;20484;-83
2023/04/04 04:28:05;;;;;;;4.90;2.20;;;4.90;64.00;;;;;;5035324;28;21332;-81
2023/04/04 04:30:37;;;;;;;2.27;1.40;;;4.80;64.80;;;;;;5030063;28;20446;-84
2023/04/04 04:33:28;;;;;;;2.17;1.63;;;4.80;64.80;;;;;;5029826;28;20490;-82
2023/04/04 04:36:05;;;;;;;7.80;2.20;;;4.80;65.30;;;;;;5026033;28;20488;-82
2023/04/04 04:38:45;;;;;;;2.47;2.27;;;4.90;65.20;;;;;;5022727;28;20460;-82
2023/04/04 04:41:29;;;;;;;5.00;2.10;;;4.80;65.50;;;;;;5036696;28;20457;-83
2023/04/04 04:44:21;;;;;;;4.80;2.00;;;4.90;65.70;;;;;;5035599;28;20485;-84
2023/04/04 04:46:58;;;;;;;2.27;1.87;;;5.10;66.10;;;;;;5030555;28;20532;-85
2023/04/04 04:49:41;;;;;;;2.90;1.70;;;5.00;65.10;;;;;;5021748;28;20465;-79
2023/04/04 04:52:08;;;;;;;5.80;2.80;;;4.90;65.40;;;;;;5032024;28;21016;-83
2023/04/04 04:54:37;;;;;;;2.67;2.07;;;4.90;65.60;;;;;;5030496;28;20548;-84
2023/04/04 04:57:17;;;;;;;5.67;2.20;;;4.80;65.20;;;;;;5030091;28;20549;-84
2023/04/04 05:00:02;;;;;;;3.00;1.83;;;4.90;65.60;;;;;;5027080;28;20458;-83
2023/04/04 05:02:43;;;;;;;2.30;2.00;;;4.90;65.40;;;;;;5035055;28;20969;-83
2023/04/04 05:05:29;;;;;;;3.17;1.93;;;4.80;64.90;;;;;;5030277;28;20480;-84
2023/04/04 05:08:01;;;;;;;3.00;1.90;;;4.80;64.70;;;;;;5036015;28;20466;-80
2023/04/04 05:10:42;;;;;;;2.53;1.93;;;4.70;64.80;;;;;;5039070;28;20515;-80
2023/04/04 05:13:20;;;;;;;2.83;1.70;;;4.70;65.90;;;;;;5028435;28;20508;-85
2023/04/04 05:16:12;;;;;;;1.80;1.70;;;4.80;66.20;;;;;;5029736;28;20461;-79
2023/04/04 05:18:51;;;;;;;1.83;1.60;;;4.80;65.80;;;;;;5044404;28;20449;-81
2023/04/04 05:21:26;;;;;;;3.60;2.07;;;4.70;66.60;;;;;;5042887;28;20446;-82
2023/04/04 05:24:02;;;;;;;2.00;1.60;;;4.60;66.80;;;;;;5032191;28;20577;-83
2023/04/04 05:26:35;;;;;;;4.83;1.87;;;4.90;66.20;;;;;;5031503;28;20488;-82
2023/04/04 05:29:12;;;;;;;3.97;1.77;;;4.80;65.60;;;;;;5030931;28;20454;-80
2023/04/04 05:31:48;;;;;;;4.57;1.70;;;4.80;65.80;;;;;;5034862;28;20496;-80
2023/04/04 05:34:27;;;;;;;2.20;1.77;;;4.90;65.90;;;;;;5041316;28;20524;-81
2023/04/04 05:37:03;;;;;;;4.30;2.50;;;4.90;65.80;;;;;;5041046;28;20464;-81
2023/04/04 05:39:36;;;;;;;2.17;1.93;;;5.00;65.20;;;;;;5044779;28;20466;-83
2023/04/04 05:42:21;;;;;;;2.63;1.90;;;5.00;64.90;;;;;;5046090;28;20481;-82
2023/04/04 05:44:53;;;;;;;3.63;2.17;;;5.00;64.40;;;;;;5035973;28;20508;-83
2023/04/04 05:47:25;;;;;;;3.90;1.83;;;5.00;64.20;;;;;;5035679;28;20461;-80
2023/04/04 05:49:55;;;;;;;3.50;2.47;;;4.70;64.50;;;;;;5035360;28;20488;-82
2023/04/04 05:52:28;;;;;;;2.60;2.03;;;4.90;65.80;;;;;;5036701;28;20477;-80
2023/04/04 05:54:58;;;;;;;2.43;1.80;;;4.90;65.60;;;;;;5035032;28;20600;-80
2023/04/04 05:57:54;;;;;;;4.80;2.37;;;5.70;67.00;;;;;;5038041;28;20449;-79
2023/04/04 06:00:39;;;;;;;5.70;2.23;;;6.80;63.50;;;;;;5029371;28;20469;-83
2023/04/04 06:03:12;;;;;;;3.70;1.80;;;7.10;60.90;;;;;;5034896;28;20792;-83
2023/04/04 06:05:43;;;;;;;6.17;3.17;;;7.90;59.20;;;;;;5044617;28;20484;-83
2023/04/04 06:08:35;;;;;;;4.37;4.07;;;9.40;57.00;;;;;;5033972;28;20474;-82
2023/04/04 06:11:28;;;;;;;3.23;2.17;;;9.80;53.20;;;;;;5024783;28;20496;-83
2023/04/04 06:21:57;;;;;;;3.33;1.70;;;15.10;42.80;;;;;;5277879;22;20490;-83
2023/04/04 06:27:19;;;;;;;1.90;1.80;;;13.90;41.00;;;;;;4379640;26;20500;-83
2023/04/04 06:33:01;;;;;;;3.23;2.10;;;14.40;41.80;;;;;;5185184;22;20507;-82
2023/04/04 06:35:44;;;;;;;2.40;1.80;;;15.10;40.50;;;;;;5063596;28;20456;-80
2023/04/04 06:38:42;;;;;;;5.47;2.00;;;14.70;39.70;;;;;;5144039;22;20488;-82
2023/04/04 06:41:23;;;;;;;4.83;3.67;;;14.00;40.20;;;;;;5066217;28;20432;-83
2023/04/04 06:44:00;;;;;;;2.60;2.00;;;13.70;41.10;;;;;;5060151;28;20456;-83
2023/04/04 06:46:49;;;;;;;1.47;1.30;;;14.80;41.30;;;;;;5034253;28;20512;-81
2023/04/04 06:50:10;;;;;;;3.20;1.60;;;16.50;39.00;;;;;;5041533;28;20485;-83
2023/04/04 06:53:34;;;;;;;2.90;2.33;;;17.90;36.70;;;;;;5036966;28;20484;-83
2023/04/04 06:56:19;;;;;;;3.03;1.83;;;19.20;34.80;;;;;;5031074;28;20569;-83
2023/04/04 06:58:59;;;;;;;3.03;1.97;;;18.20;33.60;;;;;;5020443;28;20517;-82
2023/04/04 07:02:02;;;;;;;2.80;1.97;;;18.60;34.40;;;;;;5032257;28;20578;-84
2023/04/04 07:04:40;;;;;;;4.30;2.07;;;18.40;33.40;;;;;;5029918;28;20488;-82
2023/04/04 07:07:28;;;;;;;3.23;1.87;;;15.80;34.60;;;;;;5027030;28;20460;-82
2023/04/04 07:10:03;;;;;;;3.10;2.13;;;13.60;36.50;;;;;;5036080;28;21016;-82
2023/04/04 07:12:59;;;;;;;3.50;1.73;;;12.80;38.70;;;;;;5019599;28;20460;-82
2023/04/04 07:15:49;;;;;;;2.20;1.90;;;13.60;40.80;;;;;;5004793;28;20442;-84
2023/04/04 07:18:32;;;;;;;4.53;2.20;;;14.20;38.50;;;;;;5031842;28;20524;-83
2023/04/04 07:21:31;;;;;;;5.03;2.33;;;14.50;38.50;;;;;;5029033;28;20437;-82
2023/04/04 07:24:17;;;;;;;4.23;2.10;;;17.00;37.60;;;;;;5035096;28;20532;-84
2023/04/04 07:26:55;;;;;;;5.20;2.33;;;18.90;35.20;;;;;;5029614;28;20457;-83
2023/04/04 07:29:54;;;;;;;3.37;2.20;;;20.20;32.60;;;;;;5023873;28;20464;-84
2023/04/04 07:33:25;;;;;;;3.23;2.37;;;21.00;31.20;;;;;;5036049;28;20449;-84
2023/04/04 07:43:12;;;;;;;4.00;1.87;;;21.50;28.90;;;;;;5040790;28;20770;-84
2023/04/04 07:46:31;;;;;;;;;;;;;;;;;;;;;
2023/04/04 07:49:11;;;;;;;1.97;1.77;;;21.50;28.90;;;;;;5028711;28;20450;-84
2023/04/04 07:52:18;;;;;;;3.10;2.10;;;21.70;28.20;;;;;;5035693;28;20416;-82
2023/04/04 07:55:34;;;;;;;2.20;1.80;;;21.90;28.60;;;;;;5023089;28;20566;-83
2023/04/04 07:58:37;;;;;;;3.13;1.63;;;21.90;27.80;;;;;;5015228;28;20456;-84
2023/04/04 08:01:38;;;;;;;6.10;2.30;;;20.70;27.70;;;;;;5016171;28;20467;-83
2023/04/04 08:05:22;;;;;;;;;;;;;;;;;;;;;
2023/04/04 08:09:01;;;;;;;2.40;1.77;;;18.80;29.30;;;;;;5007089;28;20960;-84
2023/04/04 08:13:03;;;;;;;3.10;2.00;;;19.90;28.40;;;;;;5008773;28;20462;-85
2023/04/04 08:16:46;;;;;;;2.43;1.93;;;20.40;28.60;;;;;;4990532;28;20503;-83
2023/04/04 08:20:02;;;;;;;;;;;;;;;;;;;;;
2023/04/04 08:23:44;;;;;;;3.00;1.87;;;20.60;26.50;;;;;;4975593;28;20533;-83
2023/04/04 08:30:34;;;;;;;3.40;1.87;;;19.80;27.00;;;;;;4960383;28;20511;-83
2023/04/04 08:33:51;;;;;;;3.27;2.43;;;19.70;27.70;;;;;;4970950;28;20463;-83
2023/04/04 08:41:18;;;;;;;2.40;2.00;;;18.60;27.40;;;;;;4931434;29;20481;-84
2023/04/04 08:44:10;;;;;;;2.67;2.47;;;18.20;28.10;;;;;;4933275;29;20513;-82
2023/04/04 08:47:36;;;;;;;2.70;2.50;;;19.20;28.30;;;;;;4936811;28;20457;-83
2023/04/04 08:51:08;;;;;;;2.43;2.23;;;19.60;27.50;;;;;;5042370;28;20434;-83
2023/04/04 09:01:56;;;;;;;;;;;;;;;;;;;;;
2023/04/04 09:05:12;;;;;;;3.20;2.73;;;13.30;30.60;;;;;;5045985;28;20478;-83
2023/04/04 09:11:47;;;;;;;2.87;2.33;;;11.60;36.80;;;;;;5056719;28;20433;-83
2023/04/04 09:14:50;;;;;;;3.40;2.60;;;12.50;35.50;;;;;;5021448;28;21048;-82
2023/04/04 09:17:47;;;;;;;5.87;2.50;;;14.10;34.10;;;;;;5041572;28;20779;-83
2023/04/04 09:20:52;;;;;;;4.57;2.90;;;16.00;32.80;;;;;;5032168;28;20458;-83
2023/04/04 09:23:43;;;;;;;2.80;2.43;;;17.70;30.10;;;;;;5029223;28;20501;-82
2023/04/04 09:26:48;;;;;;;2.73;2.43;;;18.00;29.60;;;;;;5021565;28;20574;-83
2023/04/04 09:29:46;;;;;;;97.57;17.60;;;18.00;28.80;;;;;;5035197;28;20526;-82
2023/04/04 09:32:40;;;;;;;3.97;2.90;;;18.00;28.70;;;;;;5047182;28;20513;-83
2023/04/04 09:35:19;;;;;;;2.87;2.63;;;20.20;28.60;;;;;;5045403;28;20482;-83
2023/04/04 09:37:51;;;;;;;3.33;2.33;;;20.80;27.20;;;;;;5041155;28;20473;-82
2023/04/04 09:40:26;;;;;;;3.20;2.70;;;20.80;26.90;;;;;;5035964;28;20472;-83
2023/04/04 09:43:33;;;;;;;3.40;2.80;;;20.40;27.30;;;;;;5036753;28;20501;-83
2023/04/04 09:46:16;;;;;;;4.30;2.50;;;20.40;27.10;;;;;;5033245;28;20474;-81
2023/04/04 09:48:54;;;;;;;4.00;2.60;;;20.80;26.50;;;;;;5046724;28;20436;-82
2023/04/04 09:51:49;;;;;;;3.23;2.57;;;21.60;26.60;;;;;;5022060;28;20454;-84
2023/04/04 09:54:26;;;;;;;3.47;2.90;;;21.60;25.90;;;;;;5031722;28;20557;-83
2023/04/04 09:56:57;;;;;;;2.90;2.70;;;21.50;26.00;;;;;;5044064;28;20574;-83
2023/04/04 09:59:40;;;;;;;3.03;2.67;;;21.00;26.00;;;;;;5045227;28;20449;-82
2023/04/04 10:02:25;;;;;;;4.43;3.30;;;20.00;26.90;;;;;;5046468;28;20465;-83
2023/04/04 10:05:05;;;;;;;4.37;2.93;;;21.00;26.90;;;;;;5039802;28;20604;-84
2023/04/04 10:07:46;;;;;;;3.13;2.93;;;21.10;26.60;;;;;;5040178;28;20449;-84
2023/04/04 10:10:36;;;;;;;3.03;2.83;;;21.20;26.20;;;;;;5030600;28;20441;-84
2023/04/04 10:13:10;;;;;;;2.90;2.53;;;19.80;26.40;;;;;;5037217;28;20540;-83
2023/04/04 10:15:48;;;;;;;3.30;3.00;;;19.20;27.20;;;;;;5045889;28;20456;-82
2023/04/04 10:18:34;;;;;;;2.87;2.67;;;19.70;27.50;;;;;;5030305;28;20460;-82
2023/04/04 10:21:13;;;;;;;3.37;2.53;;;20.20;27.60;;;;;;5040029;28;20449;-83
2023/04/04 10:24:00;;;;;;;4.30;3.50;;;20.30;27.00;;;;;;5046995;28;20563;-84
2023/04/04 10:27:01;;;;;;;3.17;2.90;;;20.80;25.90;;;;;;5039824;28;20476;-83
2023/04/04 10:33:23;;;;;;;3.17;2.87;;;19.90;27.20;;;;;;5038899;28;20483;-83
2023/04/04 10:36:12;;;;;;;3.13;2.83;;;20.90;27.00;;;;;;5036675;28;20453;-83
2023/04/04 10:39:15;;;;;;;3.43;3.17;;;20.90;27.10;;;;;;5035360;28;20577;-84
2023/04/04 10:42:00;;;;;;;3.10;2.90;;;20.70;26.20;;;;;;5044227;28;20518;-83
2023/04/04 10:44:39;;;;;;;3.40;3.10;;;19.70;27.40;;;;;;5034411;28;20476;-83
2023/04/04 10:47:24;;;;;;;2.87;2.57;;;19.80;27.40;;;;;;5030433;28;20453;-83
2023/04/04 10:49:57;;;;;;;3.77;3.10;;;19.40;26.90;;;;;;5034771;28;20462;-82
2023/04/04 10:52:37;;;;;;;3.23;2.97;;;18.70;27.80;;;;;;5041180;28;20517;-83
2023/04/04 10:55:11;;;;;;;3.80;2.70;;;18.50;28.70;;;;;;5045377;28;20472;-83
2023/04/04 10:57:54;;;;;;;3.00;2.80;;;18.70;27.80;;;;;;5043541;28;20467;-83
2023/04/04 11:00:24;;;;;;;3.13;2.83;;;19.40;27.60;;;;;;5033023;28;20480;-83
2023/04/04 11:03:06;;;;;;;2.80;2.60;;;19.40;27.50;;;;;;5031498;28;20474;-84
2023/04/04 11:05:45;;;;;;;3.57;3.27;;;19.90;27.00;;;;;;5033456;28;20481;-84
2023/04/04 11:08:36;;;;;;;3.77;3.10;;;19.30;27.60;;;;;;5031370;28;20451;-84
2023/04/04 11:11:17;;;;;;;3.13;2.93;;;19.20;27.70;;;;;;5046965;28;20475;-85
2023/04/04 11:14:07;;;;;;;3.40;3.10;;;19.90;27.30;;;;;;5046743;28;20465;-83
2023/04/04 11:17:03;;;;;;;4.10;3.23;;;20.30;27.10;;;;;;5026704;28;20541;-83
2023/04/04 11:19:55;;;;;;;3.20;2.90;;;19.60;27.10;;;;;;5032818;28;20449;-84
2023/04/04 11:22:33;;;;;;;4.00;3.70;;;19.60;27.70;;;;;;5038605;28;20549;-83
2023/04/04 11:25:31;;;;;;;4.47;3.30;;;19.80;27.30;;;;;;5026926;28;20497;-83
2023/04/04 11:28:32;;;;;;;3.87;3.57;;;20.00;27.10;;;;;;5022174;28;20680;-83
2023/04/04 11:31:18;;;;;;;4.50;3.70;;;20.00;26.20;;;;;;5035602;28;20493;-82
2023/04/04 11:34:10;;;;;;;3.53;3.23;;;19.40;26.80;;;;;;5036170;28;20509;-83
2023/04/04 11:36:48;;;;;;;3.07;2.87;;;19.00;27.50;;;;;;5029713;28;20950;-83
2023/04/04 11:39:33;;;;;;;3.53;3.23;;;19.40;27.10;;;;;;5035298;28;20491;-82
2023/04/04 11:42:22;;;;;;;6.40;3.20;;;19.10;27.40;;;;;;5035321;28;20547;-82
2023/04/04 11:44:51;;;;;;;4.30;3.90;;;18.60;27.10;;;;;;5029868;28;20450;-83
2023/04/04 11:47:28;;;;;;;3.20;2.90;;;18.40;27.40;;;;;;5036365;28;20478;-83
2023/04/04 11:50:24;;;;;;;3.30;3.10;;;19.20;26.90;;;;;;5037396;28;20449;-82
2023/04/04 11:52:53;;;;;;;3.27;3.00;;;20.00;26.60;;;;;;5037544;28;20487;-83
2023/04/04 11:55:22;;;;;;;3.80;3.50;;;20.00;26.90;;;;;;5034591;28;20458;-83
2023/04/04 11:58:10;;;;;;;4.00;3.70;;;20.30;26.10;;;;;;5028172;28;20460;-83
2023/04/04 12:00:45;;;;;;;3.03;2.83;;;20.10;25.70;;;;;;5038086;28;20462;-83
2023/04/04 12:03:27;;;;;;;3.33;3.03;;;19.00;25.90;;;;;;5043423;28;20958;-82
2023/04/04 12:06:13;;;;;;;3.40;3.00;;;19.10;26.10;;;;;;5038918;28;20477;-82
2023/04/04 12:08:47;;;;;;;2.83;2.63;;;19.30;26.60;;;;;;5033836;28;20529;-83
2023/04/04 12:11:28;;;;;;;2.70;2.50;;;19.00;27.20;;;;;;5042193;28;20451;-83
2023/04/04 12:14:24;;;;;;;4.30;3.17;;;18.90;27.10;;;;;;5045401;28;20473;-83
2023/04/04 12:17:14;;;;;;;4.47;2.70;;;18.60;27.50;;;;;;5040933;28;20480;-83
2023/04/04 12:19:43;;;;;;;3.83;3.20;;;18.90;27.20;;;;;;5045315;28;20902;-83
2023/04/04 12:22:38;;;;;;;3.00;2.80;;;19.80;26.30;;;;;;5027365;28;20440;-82
2023/04/04 12:25:37;;;;;;;3.57;2.97;;;19.00;26.00;;;;;;5043662;28;20483;-82
2023/04/04 12:28:20;;;;;;;3.70;3.40;;;19.80;26.80;;;;;;5042501;28;20453;-83
2023/04/04 12:30:53;;;;;;;5.07;2.77;;;19.90;26.60;;;;;;5042746;28;20501;-83
2023/04/04 12:33:26;;;;;;;3.30;3.10;;;19.80;25.80;;;;;;5041812;28;20479;-83
2023/04/04 12:36:35;;;;;;;3.10;2.90;;;18.70;26.40;;;;;;5032481;28;20441;-83
2023/04/04 12:39:07;;;;;;;3.00;2.70;;;18.70;27.20;;;;;;5032433;28;20437;-82
2023/04/04 12:42:02;;;;;;;2.93;2.50;;;18.40;27.30;;;;;;5030320;28;20455;-82
2023/04/04 12:44:42;;;;;;;3.20;2.60;;;18.20;26.80;;;;;;5031021;28;20492;-83
2023/04/04 12:47:35;;;;;;;3.47;3.17;;;17.80;27.60;;;;;;5056157;28;20471;-83
2023/04/04 12:50:25;;;;;;;3.17;2.47;;;17.80;27.80;;;;;;5054995;28;20447;-83
2023/04/04 12:52:56;;;;;;;2.40;2.20;;;18.30;27.80;;;;;;5048371;28;20471;-83
2023/04/04 12:55:51;;;;;;;6.20;2.60;;;19.00;27.10;;;;;;5048703;28;20477;-83
2023/04/04 12:58:31;;;;;;;3.00;2.70;;;18.90;26.60;;;;;;5054390;28;20441;-83
2023/04/04 13:01:08;;;;;;;2.30;2.20;;;19.50;26.40;;;;;;5048380;28;20450;-83
2023/04/04 13:04:12;;;;;;;3.77;2.27;;;19.00;25.90;;;;;;5057577;28;20492;-83
2023/04/04 13:07:05;;;;;;;2.60;2.43;;;18.70;26.20;;;;;;5040576;28;20551;-83
2023/04/04 13:10:00;;;;;;;3.00;2.80;;;18.70;26.40;;;;;;5038651;28;20458;-82
2023/04/04 13:13:05;;;;;;;3.23;2.70;;;19.00;26.20;;;;;;5043330;28;20441;-83
2023/04/04 13:15:59;;;;;;;3.00;2.80;;;18.70;26.00;;;;;;5035697;28;20464;-82
2023/04/04 13:19:27;;;;;;;2.43;2.33;;;19.60;26.00;;;;;;5030981;28;20545;-82
2023/04/04 13:22:11;;;;;;;2.57;2.37;;;19.20;25.50;;;;;;5042284;28;20447;-81
2023/04/04 13:24:54;;;;;;;3.67;2.67;;;18.50;25.90;;;;;;5038086;28;21064;-82
2023/04/04 13:32:45;;;;;;;2.40;2.20;;;18.90;26.00;;;;;;4946055;29;20429;-82
2023/04/04 13:35:44;;;;;;;2.83;2.50;;;19.00;25.40;;;;;;4972315;28;20473;-82
2023/04/04 13:38:28;;;;;;;2.40;2.20;;;18.30;25.70;;;;;;4981510;28;21347;-80
2023/04/04 13:41:21;;;;;;;3.27;2.40;;;18.00;26.70;;;;;;4978609;28;20943;-84
2023/04/04 13:44:01;;;;;;;3.30;2.53;;;18.20;26.50;;;;;;5278637;22;20492;-83
2023/04/04 13:46:36;;;;;;;2.87;2.20;;;18.40;27.40;;;;;;5052300;28;20531;-82
2023/04/04 13:49:11;;;;;;;2.80;2.50;;;18.60;26.90;;;;;;5045483;28;20460;-83
2023/04/04 13:51:44;;;;;;;2.50;2.30;;;18.50;26.70;;;;;;5054624;28;20449;-82
2023/04/04 13:54:31;;;;;;;2.10;2.00;;;18.30;26.40;;;;;;5051129;28;20445;-82
2023/04/04 13:57:17;;;;;;;3.20;2.80;;;18.60;26.20;;;;;;5049017;28;20457;-81
2023/04/04 14:00:19;;;;;;;3.30;3.00;;;18.40;25.50;;;;;;5039457;28;21131;-82
2023/04/04 14:07:18;;;;;;;2.40;2.20;;;17.10;26.90;;;;;;4979708;28;20956;-83
2023/04/04 14:10:17;;;;;;;3.40;2.27;;;17.10;27.40;;;;;;5045559;28;20612;-83
2023/04/04 14:12:56;;;;;;;2.93;2.70;;;17.60;27.30;;;;;;5047878;28;21771;-83
2023/04/04 14:15:48;;;;;;;2.90;2.10;;;18.40;26.80;;;;;;5053300;28;20430;-82
2023/04/04 14:18:20;;;;;;;3.50;2.93;;;18.10;26.40;;;;;;5052002;28;20452;-81
2023/04/04 14:21:04;;;;;;;3.03;2.73;;;17.90;26.40;;;;;;5042825;28;20559;-81
2023/04/04 14:23:48;;;;;;;2.20;1.80;;;17.70;26.50;;;;;;5044742;28;20480;-84
2023/04/04 14:26:20;;;;;;;3.17;2.20;;;17.60;26.50;;;;;;5049451;28;20472;-84
2023/04/04 14:28:51;;;;;;;2.50;2.30;;;17.30;26.50;;;;;;5063600;28;20467;-82
2023/04/04 14:31:37;;;;;;;3.47;2.30;;;17.10;27.10;;;;;;5046296;28;20791;-84
2023/04/04 14:34:07;;;;;;;3.17;2.33;;;17.20;27.10;;;;;;5046716;28;20480;-84
2023/04/04 14:36:41;;;;;;;3.03;2.70;;;17.50;27.10;;;;;;5036611;28;20456;-84
2023/04/04 14:39:16;;;;;;;3.00;2.00;;;17.30;26.70;;;;;;5047890;28;20452;-84
2023/04/04 14:41:48;;;;;;;2.77;2.10;;;17.20;26.70;;;;;;5039743;28;20471;-83
2023/04/04 14:44:53;;;;;;;2.80;2.23;;;17.20;27.10;;;;;;4879635;26;20495;-83
2023/04/04 14:47:26;;;;;;;2.30;2.10;;;17.50;26.80;;;;;;5059804;28;20479;-83
2023/04/04 14:50:16;;;;;;;2.70;2.20;;;17.50;26.60;;;;;;5054503;28;20546;-83
2023/04/04 14:52:49;;;;;;;3.67;2.20;;;17.00;26.40;;;;;;5059457;28;21041;-82
2023/04/04 14:55:27;;;;;;;2.57;2.37;;;16.80;27.00;;;;;;5060604;28;20559;-83
2023/04/04 14:58:37;;;;;;;3.33;2.90;;;17.00;27.10;;;;;;5046692;28;20962;-82
2023/04/04 15:01:21;;;;;;;2.23;2.03;;;17.10;27.20;;;;;;5060915;28;20467;-83
2023/04/04 15:04:29;;;;;;;2.63;2.43;;;17.30;27.10;;;;;;5053723;28;20508;-82
2023/04/04 15:07:27;;;;;;;2.30;2.10;;;17.10;27.30;;;;;;5044489;28;20472;-81
2023/04/04 15:10:18;;;;;;;3.23;2.50;;;17.30;27.40;;;;;;5050957;28;21210;-82
2023/04/04 15:13:19;;;;;;;4.63;2.93;;;17.30;27.30;;;;;;5038720;28;20515;-81
2023/04/04 15:15:50;;;;;;;7.70;3.50;;;17.10;27.10;;;;;;5051511;28;20466;-82
2023/04/04 15:18:28;;;;;;;2.17;2.00;;;16.60;27.10;;;;;;5047015;28;20966;-82
2023/04/04 15:21:15;;;;;;;3.47;2.90;;;16.50;27.60;;;;;;5047968;28;20577;-83
2023/04/04 15:23:58;;;;;;;2.60;2.40;;;16.50;27.40;;;;;;5055261;28;20487;-83
2023/04/04 15:26:34;;;;;;;3.37;2.53;;;16.40;27.60;;;;;;5046299;28;20506;-82
2023/04/04 15:29:13;;;;;;;3.53;2.80;;;16.00;27.90;;;;;;5046711;28;20540;-83
2023/04/04 15:31:47;;;;;;;2.80;2.30;;;15.80;27.90;;;;;;5028025;28;20522;-83
2023/04/04 15:34:35;;;;;;;2.70;2.50;;;15.60;28.10;;;;;;5048345;28;20471;-83
2023/04/04 15:37:36;;;;;;;3.60;3.07;;;15.30;28.60;;;;;;5052003;28;20520;-83
2023/04/04 15:40:26;;;;;;;3.97;2.83;;;15.40;29.40;;;;;;5054894;28;20459;-83
2023/04/04 15:43:11;;;;;;;3.70;2.50;;;15.40;29.60;;;;;;5049680;28;20499;-83